This is the latest recevied weather packets stored in our database for station/object OH2TH. If no packets are shown the sender has not sent any weather packets the latest 10 day(s).
| Time | Temp. | Humidity | Pressure | Rain* | Wind** | Luminosity | Snow |
|---|---|---|---|---|---|---|---|
| 1777806001 | 17.22° C | 49% | 101 hPa | 3.3 mm | - | - | - |
| 1777805101 | 17.22° C | 48% | 101 hPa | 3.3 mm | - | - | - |
| 1777804200 | 17.78° C | 47% | 101 hPa | - | - | - | - |
| 1777803305 | 17.78° C | 48% | 101 hPa | - | - | - | - |
| 1777802405 | 16.67° C | 52% | 101 hPa | - | - | - | - |
| 1777801504 | 15.56° C | 52% | 101 hPa | - | - | - | - |
| 1777800604 | 14.44° C | 56% | 101 hPa | - | - | - | - |
| 1777799704 | 13.89° C | 61% | 101 hPa | - | - | - | - |
| 1777798804 | 12.78° C | 63% | 101 hPa | - | - | - | - |
| 1777797904 | 12.78° C | 64% | 101 hPa | - | - | - | - |
| 1777797003 | 12.22° C | 65% | 101 hPa | - | - | - | - |
| 1777796103 | 12.22° C | 67% | 101 hPa | - | - | - | - |
| 1777795203 | 12.22° C | 66% | 101 hPa | - | - | - | - |
| 1777794303 | 12.22° C | 67% | 101 hPa | 6.35 mm | - | - | - |
| 1777793402 | 11.11° C | 70% | 101 hPa | 6.35 mm | - | - | - |
| 1777792502 | 10° C | 73% | 101 hPa | 6.35 mm | - | - | - |
| 1777791602 | 10° C | 81% | 101 hPa | 6.35 mm | - | - | - |
| 1777790702 | 10° C | 78% | 101 hPa | 3.05 mm | - | - | - |
| 1777789801 | 10° C | 73% | 100 hPa | - | - | - | - |
| 1777788901 | 10° C | 71% | 100 hPa | - | - | - | - |
| 1777788001 | 10° C | 69% | 100 hPa | - | - | - | - |
| 1777787100 | 10° C | 73% | 100 hPa | - | - | - | - |
| 1777786205 | 8.89° C | 76% | 100 hPa | - | - | - | - |
| 1777785304 | 7.78° C | 77% | 100 hPa | - | - | - | - |
| 1777784404 | 7.78° C | 81% | 100 hPa | - | - | - | - |
* Rain latest hour (hover to see other rain measurements)
** Current wind speed in m/s (hover to see current wind gust speed)